createdAt,value
2022-10-23T00:00:44.686Z,77.60
2022-10-23T00:06:10.375Z,77.30
2022-10-23T00:11:15.805Z,77.50
2022-10-23T00:16:19.547Z,77.60
2022-10-23T00:21:24.665Z,77.50
2022-10-23T00:26:28.170Z,78.30
2022-10-23T00:31:31.472Z,77.20
2022-10-23T00:36:36.552Z,77.00
2022-10-23T00:41:39.840Z,77.00
2022-10-23T00:46:43.164Z,76.90
2022-10-23T00:51:52.510Z,76.80
2022-10-23T00:56:59.731Z,76.60
2022-10-23T01:02:03.201Z,76.50
2022-10-23T01:07:16.131Z,76.70
2022-10-23T01:12:25.128Z,76.70
2022-10-23T01:17:39.679Z,76.70
2022-10-23T01:23:13.289Z,76.60
2022-10-23T01:28:24.567Z,76.70
2022-10-23T01:33:34.164Z,76.70
2022-10-23T01:38:42.117Z,76.60
2022-10-23T01:43:50.905Z,76.30
2022-10-23T01:48:56.347Z,76.00
2022-10-23T01:54:01.870Z,76.10
2022-10-23T01:59:11.016Z,76.20
2022-10-23T02:04:19.364Z,76.30
2022-10-23T02:09:22.972Z,76.40
2022-10-23T02:14:37.561Z,76.60
2022-10-23T02:19:47.919Z,76.60
2022-10-23T02:24:54.583Z,76.60
2022-10-23T02:30:06.292Z,76.60
2022-10-23T02:35:10.193Z,76.50
2022-10-23T02:40:13.638Z,76.40
2022-10-23T02:45:24.835Z,76.70
2022-10-23T02:50:35.325Z,76.70
2022-10-23T02:55:47.634Z,76.60
2022-10-23T03:00:57.086Z,76.70
2022-10-23T03:06:00.865Z,76.70
2022-10-23T03:11:04.379Z,76.70
2022-10-23T03:16:09.655Z,76.80
2022-10-23T03:21:13.227Z,76.70
2022-10-23T03:26:16.996Z,76.80
2022-10-23T03:31:21.636Z,76.80
2022-10-23T03:36:24.962Z,76.90
2022-10-23T03:41:28.344Z,77.00
2022-10-23T03:46:33.218Z,77.00
2022-10-23T03:51:36.562Z,77.10
2022-10-23T03:56:39.899Z,77.10
2022-10-23T04:01:44.662Z,77.10
2022-10-23T04:06:48.096Z,77.20
2022-10-23T04:11:51.757Z,77.10
2022-10-23T04:16:56.745Z,77.10
2022-10-23T04:22:00.504Z,77.10
2022-10-23T04:27:04.236Z,77.20
2022-10-23T04:32:09.608Z,78.10
2022-10-23T04:37:13.164Z,77.10
2022-10-23T04:42:17.035Z,77.00
2022-10-23T04:47:21.791Z,78.00
2022-10-23T04:52:25.159Z,77.20
2022-10-23T04:57:28.721Z,77.10
2022-10-23T05:02:33.523Z,77.10
2022-10-23T05:07:37.476Z,77.20
2022-10-23T05:12:41.022Z,77.10
2022-10-23T05:17:49.023Z,77.40
2022-10-23T05:22:55.468Z,77.60
2022-10-23T05:27:59.040Z,77.60
2022-10-23T05:33:04.434Z,78.00
2022-10-23T05:38:09.406Z,78.20
2022-10-23T05:43:12.929Z,78.10
2022-10-23T05:48:33.346Z,78.10
2022-10-23T05:53:40.184Z,78.00
2022-10-23T05:58:46.102Z,78.10
2022-10-23T06:03:51.213Z,77.90
2022-10-23T06:08:55.317Z,77.70
2022-10-23T06:14:00.806Z,77.80
2022-10-23T06:19:05.949Z,78.00
2022-10-23T06:24:09.945Z,78.00
2022-10-23T06:29:13.210Z,78.40
2022-10-23T06:34:18.146Z,77.70
2022-10-23T06:39:22.451Z,77.70
2022-10-23T06:44:26.093Z,77.70
2022-10-23T06:49:31.164Z,77.80
2022-10-23T06:54:34.813Z,77.80
2022-10-23T06:59:38.191Z,77.90
2022-10-23T07:04:42.909Z,78.00
2022-10-23T07:09:46.270Z,78.00
2022-10-23T07:14:49.633Z,78.20
2022-10-23T07:19:54.871Z,78.50
2022-10-23T07:24:58.623Z,78.60
2022-10-23T07:30:01.911Z,78.50
2022-10-23T07:35:07.908Z,78.50
2022-10-23T07:40:12.242Z,78.50
2022-10-23T07:45:15.993Z,78.60
2022-10-23T07:50:20.863Z,78.70
2022-10-23T07:55:24.465Z,78.80
2022-10-23T08:00:27.896Z,78.70
2022-10-23T08:05:32.893Z,78.70
2022-10-23T08:10:36.421Z,78.70
2022-10-23T08:15:40.003Z,78.80
2022-10-23T08:20:46.770Z,78.90
2022-10-23T08:25:50.400Z,79.00
2022-10-23T08:30:53.869Z,79.10
2022-10-23T08:35:58.535Z,79.10
2022-10-23T08:41:02.849Z,78.90
2022-10-23T08:46:10.126Z,78.90
2022-10-23T08:51:18.706Z,79.00
2022-10-23T08:56:27.049Z,79.20
2022-10-23T09:01:38.695Z,79.10
2022-10-23T09:06:49.913Z,79.00
2022-10-23T09:12:01.207Z,78.90
2022-10-23T09:17:16.748Z,79.00
2022-10-23T09:22:21.379Z,79.00
2022-10-23T09:27:24.735Z,79.00
2022-10-23T09:32:35.944Z,79.00
2022-10-23T09:37:48.481Z,79.00
2022-10-23T09:42:57.644Z,78.90
2022-10-23T09:48:14.475Z,78.50
2022-10-23T09:53:33.189Z,78.50
2022-10-23T09:58:39.789Z,78.40
2022-10-23T10:03:50.287Z,78.40
2022-10-23T10:08:57.698Z,77.30
2022-10-23T10:14:24.081Z,76.90
2022-10-23T10:19:34.313Z,76.20
2022-10-23T10:24:47.205Z,75.50
2022-10-23T10:30:03.313Z,75.60
2022-10-23T10:35:23.344Z,75.50
2022-10-23T10:40:32.595Z,75.10
2022-10-23T10:45:40.335Z,75.20
2022-10-23T10:50:48.925Z,74.90
2022-10-23T10:55:56.827Z,74.70
2022-10-23T11:01:03.216Z,75.60
2022-10-23T11:06:14.057Z,74.30
2022-10-23T11:11:22.842Z,74.50
2022-10-23T11:16:30.442Z,74.30
2022-10-23T11:21:40.623Z,73.70
2022-10-23T11:26:58.359Z,72.30
2022-10-23T11:32:21.398Z,72.60
2022-10-23T11:37:26.830Z,72.40
2022-10-23T11:42:46.610Z,71.40
2022-10-23T11:47:58.788Z,71.40
2022-10-23T11:53:16.081Z,70.40
2022-10-23T11:58:24.091Z,70.50
2022-10-23T12:03:40.776Z,70.70
2022-10-23T12:08:44.788Z,69.90
2022-10-23T12:13:49.560Z,69.70
2022-10-23T12:18:55.784Z,68.60
2022-10-23T12:24:22.525Z,68.80
2022-10-23T12:29:41.027Z,68.90
2022-10-23T12:34:55.324Z,67.30
2022-10-23T12:40:01.990Z,67.70
2022-10-23T12:45:18.679Z,67.70
2022-10-23T12:50:23.834Z,68.10
2022-10-23T12:55:30.920Z,68.00
2022-10-23T13:00:38.212Z,67.80
2022-10-23T13:05:41.792Z,67.50
2022-10-23T13:10:45.598Z,67.50
2022-10-23T13:15:50.385Z,67.10
2022-10-23T13:20:59.528Z,65.60
2022-10-23T13:26:05.102Z,65.80
2022-10-23T13:31:27.165Z,65.70
2022-10-23T13:36:32.675Z,65.00
2022-10-23T13:41:39.368Z,64.20
2022-10-23T13:46:46.140Z,64.40
2022-10-23T13:51:51.921Z,63.80
2022-10-23T13:56:56.188Z,63.40
2022-10-23T14:02:01.231Z,63.20
2022-10-23T14:07:04.716Z,63.20
2022-10-23T14:12:08.474Z,63.30
2022-10-23T14:17:13.185Z,63.50
2022-10-23T14:22:16.607Z,63.50
2022-10-23T14:27:20.173Z,63.50
2022-10-23T14:32:24.844Z,63.60
2022-10-23T14:37:28.292Z,63.60
2022-10-23T14:42:34.352Z,64.60
2022-10-23T14:47:39.174Z,63.60
2022-10-23T14:52:42.430Z,63.40
2022-10-23T14:57:45.926Z,63.40
2022-10-23T15:02:51.134Z,63.40
2022-10-23T15:07:56.465Z,64.80
2022-10-23T15:12:59.809Z,63.80
2022-10-23T15:18:04.681Z,63.80
2022-10-23T15:23:08.044Z,63.80
2022-10-23T15:28:11.373Z,63.80
2022-10-23T15:33:19.211Z,63.90
2022-10-23T15:38:23.833Z,63.90
2022-10-23T15:43:27.313Z,64.20
2022-10-23T15:48:32.099Z,64.50
2022-10-23T15:53:35.429Z,64.70
2022-10-23T15:58:38.830Z,64.90
2022-10-23T16:03:43.759Z,65.00
2022-10-23T16:08:47.156Z,65.10
2022-10-23T16:13:51.066Z,65.20
2022-10-23T16:18:56.146Z,65.40
2022-10-23T16:24:01.512Z,65.60
2022-10-23T16:29:07.402Z,65.70
2022-10-23T16:34:12.511Z,65.80
2022-10-23T16:39:18.520Z,65.90
2022-10-23T16:44:21.789Z,66.10
2022-10-23T16:49:26.597Z,66.30
2022-10-23T16:54:29.999Z,66.60
2022-10-23T16:59:33.324Z,66.70
2022-10-23T17:04:39.000Z,66.90
2022-10-23T17:09:44.912Z,67.10
2022-10-23T17:14:48.295Z,67.00
2022-10-23T17:19:53.224Z,67.20
2022-10-23T17:24:56.740Z,67.20
2022-10-23T17:30:00.308Z,67.40
2022-10-23T17:35:07.998Z,67.60
2022-10-23T17:40:17.996Z,67.70
2022-10-23T17:45:24.414Z,67.70
2022-10-23T17:50:29.213Z,67.80
2022-10-23T17:55:32.566Z,67.90
2022-10-23T18:00:37.134Z,68.20
2022-10-23T18:05:41.805Z,68.30
2022-10-23T18:10:45.122Z,68.30
2022-10-23T18:15:48.623Z,68.50
2022-10-23T18:20:53.400Z,68.50
2022-10-23T18:25:57.406Z,68.40
2022-10-23T18:31:00.802Z,68.50
2022-10-23T18:36:13.325Z,68.60
2022-10-23T18:41:20.468Z,68.70
2022-10-23T18:46:23.887Z,68.70
2022-10-23T18:51:33.048Z,68.60
2022-10-23T18:56:38.317Z,68.70
2022-10-23T19:01:41.806Z,68.70
2022-10-23T19:06:47.597Z,68.60
2022-10-23T19:11:51.242Z,68.70
2022-10-23T19:17:01.030Z,68.70
2022-10-23T19:22:06.180Z,68.70
2022-10-23T19:27:09.905Z,68.90
2022-10-23T19:32:13.570Z,69.00
2022-10-23T19:37:18.243Z,69.10
2022-10-23T19:42:21.563Z,69.10
2022-10-23T19:47:25.128Z,69.30
2022-10-23T19:52:29.876Z,69.30
2022-10-23T19:57:34.802Z,69.20
2022-10-23T20:02:38.383Z,69.10
2022-10-23T20:07:44.067Z,69.10
2022-10-23T20:12:56.809Z,69.00
2022-10-23T20:18:06.397Z,69.20
2022-10-23T20:23:11.224Z,69.20
2022-10-23T20:28:15.339Z,69.20
2022-10-23T20:33:18.812Z,69.20
2022-10-23T20:38:23.419Z,69.20
2022-10-23T20:43:27.393Z,69.20
2022-10-23T20:48:35.208Z,69.20
2022-10-23T20:53:40.589Z,69.30
2022-10-23T20:58:43.979Z,69.50
2022-10-23T21:03:51.410Z,69.60
2022-10-23T21:08:57.876Z,69.70
2022-10-23T21:14:01.818Z,70.10
2022-10-23T21:19:07.007Z,70.50
2022-10-23T21:24:15.863Z,70.60
2022-10-23T21:29:20.494Z,70.90
2022-10-23T21:34:24.937Z,71.10
2022-10-23T21:39:29.759Z,71.00
2022-10-23T21:44:34.053Z,71.00
2022-10-23T21:49:37.423Z,70.80
2022-10-23T21:54:42.196Z,70.60
2022-10-23T21:59:45.718Z,70.50
2022-10-23T22:04:49.015Z,70.50
2022-10-23T22:09:53.727Z,70.50
2022-10-23T22:14:57.090Z,70.60
2022-10-23T22:20:00.631Z,70.70
2022-10-23T22:25:06.462Z,70.80
2022-10-23T22:30:10.431Z,70.90
2022-10-23T22:35:14.843Z,70.90
2022-10-23T22:40:19.639Z,71.10
2022-10-23T22:45:22.953Z,71.00
2022-10-23T22:50:26.260Z,72.30
2022-10-23T22:55:30.932Z,71.30
2022-10-23T23:00:34.498Z,71.50
2022-10-23T23:10:55.772Z,71.50
2022-10-23T23:15:59.396Z,71.60
2022-10-23T23:21:03.051Z,71.70
2022-10-23T23:26:08.396Z,71.80
2022-10-23T23:31:14.649Z,71.80
2022-10-23T23:36:21.295Z,72.00
2022-10-23T23:41:27.167Z,72.00
2022-10-23T23:46:31.059Z,71.90
2022-10-23T23:51:35.225Z,71.80
2022-10-23T23:56:40.137Z,71.70
